20U

Beach Airport

Beach, North Dakota, USA
METAR K20U 211755Z AUTO 14005G10KT 10SM CLR 25/09 A3006 RMK AO2
Observed Flight Rules
Jun-21 @ 17:55 UTC (19 minutes ago) Visual Flight Rules
Wind Visibility Clouds
140° at 5 knots
 Gusting to 10 knots
10 miles
  • Clear skies
Temperatures Readings
Current 25°C / 77°F
Dewpoint 9°C / 48°F
Humidity 36%
Altimeter 30.06" Hg
Pressure 1018 hPa
Elevation 840
METAR K20U 211755Z AUTO 14005G10KT 10SM CLR 25/09 A3006 RMK AO2
Observed Flight Rules
Jun-21 @ 17:55 UTC
(19 minutes ago)
VFR
Wind Visibility
140° at 5 knots
 Gusting to 10 knots
10 miles
Clouds
  • Clear skies
Temperature Dewpoint
25°C / 77°F 9°C / 48°F
Humidity Altimeter Pressure
36% 30.06" Hg 1018 hPa